sensor_id;sensor_type;location;lat;lon;timestamp;pressure;altitude;pressure_sealevel;temperature;humidity
17311;BME280;8773;43.300;0.394;2023-04-27T00:00:40;99717.91;;;18.72;68.32
17311;BME280;8773;43.300;0.394;2023-04-27T00:03:11;99710.63;;;18.52;69.12
17311;BME280;8773;43.300;0.394;2023-04-27T00:05:39;99707.28;;;18.44;69.30
17311;BME280;8773;43.300;0.394;2023-04-27T00:08:08;99703.13;;;18.48;69.33
17311;BME280;8773;43.300;0.394;2023-04-27T00:10:36;99705.00;;;18.54;68.97
17311;BME280;8773;43.300;0.394;2023-04-27T00:13:04;99703.13;;;18.54;69.09
17311;BME280;8773;43.300;0.394;2023-04-27T00:15:33;99698.78;;;18.53;69.03
17311;BME280;8773;43.300;0.394;2023-04-27T00:18:01;99703.75;;;18.56;68.38
17311;BME280;8773;43.300;0.394;2023-04-27T00:20:30;99711.25;;;18.54;68.77
17311;BME280;8773;43.300;0.394;2023-04-27T00:22:59;99707.28;;;18.50;68.79
17311;BME280;8773;43.300;0.394;2023-04-27T00:25:27;99707.09;;;18.45;69.17
17311;BME280;8773;43.300;0.394;2023-04-27T00:27:55;99711.25;;;18.48;68.90
17311;BME280;8773;43.300;0.394;2023-04-27T00:30:23;99706.84;;;18.47;68.82
17311;BME280;8773;43.300;0.394;2023-04-27T00:32:52;99703.97;;;18.48;69.12
17311;BME280;8773;43.300;0.394;2023-04-27T00:35:21;99702.91;;;18.43;69.34
17311;BME280;8773;43.300;0.394;2023-04-27T00:37:48;99703.53;;;18.31;69.82
17311;BME280;8773;43.300;0.394;2023-04-27T00:40:18;99699.59;;;18.41;69.18
17311;BME280;8773;43.300;0.394;2023-04-27T00:42:46;99700.84;;;18.45;69.23
17311;BME280;8773;43.300;0.394;2023-04-27T00:45:14;99692.50;;;18.46;68.68
17311;BME280;8773;43.300;0.394;2023-04-27T00:47:43;99704.59;;;18.50;68.81
17311;BME280;8773;43.300;0.394;2023-04-27T00:50:13;99694.59;;;18.51;68.62
17311;BME280;8773;43.300;0.394;2023-04-27T00:52:41;99698.72;;;18.47;69.00
17311;BME280;8773;43.300;0.394;2023-04-27T00:55:10;99698.97;;;18.52;68.86
17311;BME280;8773;43.300;0.394;2023-04-27T00:57:38;99702.31;;;18.54;68.80
17311;BME280;8773;43.300;0.394;2023-04-27T01:00:06;99695.41;;;18.31;69.67
17311;BME280;8773;43.300;0.394;2023-04-27T01:02:36;99694.16;;;18.27;69.91
17311;BME280;8773;43.300;0.394;2023-04-27T01:05:06;99701.47;;;18.40;69.22
17311;BME280;8773;43.300;0.394;2023-04-27T01:07:37;99704.97;;;18.47;69.01
17311;BME280;8773;43.300;0.394;2023-04-27T01:10:06;99707.09;;;18.52;68.78
17311;BME280;8773;43.300;0.394;2023-04-27T01:12:35;99705.00;;;18.54;68.61
17311;BME280;8773;43.300;0.394;2023-04-27T01:15:04;99704.38;;;18.52;68.58
17311;BME280;8773;43.300;0.394;2023-04-27T01:17:32;99704.59;;;18.57;68.50
17311;BME280;8773;43.300;0.394;2023-04-27T01:20:01;99696.47;;;18.57;68.44
17311;BME280;8773;43.300;0.394;2023-04-27T01:22:32;99702.09;;;18.55;68.58
17311;BME280;8773;43.300;0.394;2023-04-27T01:25:03;99695.03;;;18.54;68.21
17311;BME280;8773;43.300;0.394;2023-04-27T01:27:32;99697.31;;;18.51;68.50
17311;BME280;8773;43.300;0.394;2023-04-27T01:30:00;99695.03;;;18.48;68.86
17311;BME280;8773;43.300;0.394;2023-04-27T01:32:28;99696.66;;;18.35;69.11
17311;BME280;8773;43.300;0.394;2023-04-27T01:34:56;99689.19;;;18.38;69.23
17311;BME280;8773;43.300;0.394;2023-04-27T01:37:25;99696.06;;;18.40;68.80
17311;BME280;8773;43.300;0.394;2023-04-27T01:39:53;99689.81;;;18.40;69.00
17311;BME280;8773;43.300;0.394;2023-04-27T01:42:22;99700.22;;;18.43;68.85
17311;BME280;8773;43.300;0.394;2023-04-27T01:44:51;99699.78;;;18.39;68.67
17311;BME280;8773;43.300;0.394;2023-04-27T01:47:20;99694.38;;;18.32;69.15
17311;BME280;8773;43.300;0.394;2023-04-27T01:49:48;99688.56;;;18.22;69.57
17311;BME280;8773;43.300;0.394;2023-04-27T01:52:16;99688.75;;;18.14;69.82
17311;BME280;8773;43.300;0.394;2023-04-27T01:54:44;99693.13;;;18.22;69.51
17311;BME280;8773;43.300;0.394;2023-04-27T01:57:12;99687.50;;;18.23;69.54
17311;BME280;8773;43.300;0.394;2023-04-27T01:59:42;99687.09;;;18.26;69.20
17311;BME280;8773;43.300;0.394;2023-04-27T02:02:10;99683.34;;;18.27;69.43
17311;BME280;8773;43.300;0.394;2023-04-27T02:04:38;99687.94;;;18.27;69.58
17311;BME280;8773;43.300;0.394;2023-04-27T02:07:09;99686.25;;;18.19;69.57
17311;BME280;8773;43.300;0.394;2023-04-27T02:09:37;99683.75;;;18.18;69.48
17311;BME280;8773;43.300;0.394;2023-04-27T02:12:05;99683.34;;;18.21;69.54
17311;BME280;8773;43.300;0.394;2023-04-27T02:14:33;99683.56;;;18.19;69.21
17311;BME280;8773;43.300;0.394;2023-04-27T02:17:02;99687.50;;;18.23;69.20
17311;BME280;8773;43.300;0.394;2023-04-27T02:19:30;99688.75;;;18.21;69.28
17311;BME280;8773;43.300;0.394;2023-04-27T02:21:58;99684.19;;;18.21;69.51
17311;BME280;8773;43.300;0.394;2023-04-27T02:24:27;99681.66;;;18.13;69.76
17311;BME280;8773;43.300;0.394;2023-04-27T02:26:55;99683.34;;;18.14;69.55
17311;BME280;8773;43.300;0.394;2023-04-27T02:29:23;99674.19;;;18.15;69.46
17311;BME280;8773;43.300;0.394;2023-04-27T02:31:56;99683.75;;;18.18;69.48
17311;BME280;8773;43.300;0.394;2023-04-27T02:34:26;99675.22;;;18.14;69.64
17311;BME280;8773;43.300;0.394;2023-04-27T02:36:54;99670.66;;;18.01;70.00
17311;BME280;8773;43.300;0.394;2023-04-27T02:39:22;99668.81;;;18.02;69.98
17311;BME280;8773;43.300;0.394;2023-04-27T02:41:50;99671.28;;;17.97;70.13
17311;BME280;8773;43.300;0.394;2023-04-27T02:44:18;99670.88;;;18.00;69.94
17311;BME280;8773;43.300;0.394;2023-04-27T02:46:46;99672.72;;;18.06;69.58
17311;BME280;8773;43.300;0.394;2023-04-27T02:49:14;99673.13;;;17.90;70.22
17311;BME280;8773;43.300;0.394;2023-04-27T02:51:44;99672.38;;;17.48;71.64
17311;BME280;8773;43.300;0.394;2023-04-27T02:54:12;99664.66;;;17.45;72.16
17311;BME280;8773;43.300;0.394;2023-04-27T02:56:40;99660.34;;;17.57;71.68
17311;BME280;8773;43.300;0.394;2023-04-27T02:59:08;99660.31;;;17.44;71.82
17311;BME280;8773;43.300;0.394;2023-04-27T03:01:36;99666.03;;;17.28;72.22
17311;BME280;8773;43.300;0.394;2023-04-27T03:04:04;99663.72;;;17.18;72.88
17311;BME280;8773;43.300;0.394;2023-04-27T03:06:32;99662.28;;;17.22;72.84
17311;BME280;8773;43.300;0.394;2023-04-27T03:09:02;99655.91;;;17.36;72.41
17311;BME280;8773;43.300;0.394;2023-04-27T03:11:31;99657.59;;;17.44;72.00
17311;BME280;8773;43.300;0.394;2023-04-27T03:14:00;99670.53;;;17.55;71.48
17311;BME280;8773;43.300;0.394;2023-04-27T03:16:30;99676.78;;;17.62;71.01
17311;BME280;8773;43.300;0.394;2023-04-27T03:18:58;99667.44;;;17.58;71.15
17311;BME280;8773;43.300;0.394;2023-04-27T03:21:27;99673.09;;;17.29;71.99
17311;BME280;8773;43.300;0.394;2023-04-27T03:23:55;99668.13;;;17.32;71.95
17311;BME280;8773;43.300;0.394;2023-04-27T03:26:24;99671.28;;;17.36;71.91
17311;BME280;8773;43.300;0.394;2023-04-27T03:28:52;99676.97;;;17.07;73.08
17311;BME280;8773;43.300;0.394;2023-04-27T03:31:20;99669.72;;;16.79;73.84
17311;BME280;8773;43.300;0.394;2023-04-27T03:33:48;99673.34;;;16.93;73.60
17311;BME280;8773;43.300;0.394;2023-04-27T03:36:16;99665.53;;;17.04;73.29
17311;BME280;8773;43.300;0.394;2023-04-27T03:38:44;99678.47;;;17.22;72.53
17311;BME280;8773;43.300;0.394;2023-04-27T03:41:12;99665.69;;;17.37;71.67
17311;BME280;8773;43.300;0.394;2023-04-27T03:43:42;99669.47;;;17.50;71.12
17311;BME280;8773;43.300;0.394;2023-04-27T03:46:10;99662.59;;;17.47;71.06
17311;BME280;8773;43.300;0.394;2023-04-27T03:48:38;99657.38;;;17.39;71.50
17311;BME280;8773;43.300;0.394;2023-04-27T03:51:06;99656.94;;;17.35;71.81
17311;BME280;8773;43.300;0.394;2023-04-27T03:53:34;99665.44;;;17.32;71.69
17311;BME280;8773;43.300;0.394;2023-04-27T03:56:03;99665.69;;;17.37;71.38
17311;BME280;8773;43.300;0.394;2023-04-27T03:58:31;99661.50;;;17.35;71.06
17311;BME280;8773;43.300;0.394;2023-04-27T04:01:00;99661.03;;;17.25;72.15
17311;BME280;8773;43.300;0.394;2023-04-27T04:03:29;99650.47;;;17.30;71.48
17311;BME280;8773;43.300;0.394;2023-04-27T04:05:57;99650.09;;;17.33;71.05
17311;BME280;8773;43.300;0.394;2023-04-27T04:08:25;99653.00;;;17.38;71.16
17311;BME280;8773;43.300;0.394;2023-04-27T04:10:53;99649.69;;;17.36;71.14
17311;BME280;8773;43.300;0.394;2023-04-27T04:13:22;99644.84;;;17.25;71.58
17311;BME280;8773;43.300;0.394;2023-04-27T04:16:00;99636.97;;;17.23;71.55
17311;BME280;8773;43.300;0.394;2023-04-27T04:18:29;99640.94;;;17.27;71.28
17311;BME280;8773;43.300;0.394;2023-04-27T04:20:57;99640.25;;;17.19;71.43
17311;BME280;8773;43.300;0.394;2023-04-27T04:23:25;99643.16;;;17.17;71.45
17311;BME280;8773;43.300;0.394;2023-04-27T04:25:54;99642.56;;;17.15;71.75
17311;BME280;8773;43.300;0.394;2023-04-27T04:28:23;99647.56;;;17.25;71.44
17311;BME280;8773;43.300;0.394;2023-04-27T04:30:51;99641.13;;;17.26;71.45
17311;BME280;8773;43.300;0.394;2023-04-27T04:33:21;99643.50;;;17.01;72.67
17311;BME280;8773;43.300;0.394;2023-04-27T04:35:49;99641.50;;;17.10;72.18
17311;BME280;8773;43.300;0.394;2023-04-27T04:38:19;99649.34;;;17.04;72.16
17311;BME280;8773;43.300;0.394;2023-04-27T04:40:49;99642.22;;;16.90;72.61
17311;BME280;8773;43.300;0.394;2023-04-27T04:43:18;99646.72;;;16.83;72.96
17311;BME280;8773;43.300;0.394;2023-04-27T04:45:47;99638.59;;;16.77;72.72
17311;BME280;8773;43.300;0.394;2023-04-27T04:48:15;99644.59;;;16.72;72.93
17311;BME280;8773;43.300;0.394;2023-04-27T04:50:44;99635.69;;;16.72;72.85
17311;BME280;8773;43.300;0.394;2023-04-27T04:53:12;99643.31;;;16.68;73.63
17311;BME280;8773;43.300;0.394;2023-04-27T04:55:40;99644.03;;;16.83;73.05
17311;BME280;8773;43.300;0.394;2023-04-27T04:58:11;99646.38;;;16.93;72.52
17311;BME280;8773;43.300;0.394;2023-04-27T05:00:39;99642.69;;;17.00;72.03
17311;BME280;8773;43.300;0.394;2023-04-27T05:03:07;99645.09;;;16.89;72.67
17311;BME280;8773;43.300;0.394;2023-04-27T05:05:35;99645.38;;;17.00;71.89
17311;BME280;8773;43.300;0.394;2023-04-27T05:08:04;99639.50;;;16.90;72.24
17311;BME280;8773;43.300;0.394;2023-04-27T05:10:32;99636.41;;;16.93;72.34
17311;BME280;8773;43.300;0.394;2023-04-27T05:13:00;99637.50;;;16.99;72.18
17311;BME280;8773;43.300;0.394;2023-04-27T05:15:32;99626.53;;;17.07;71.78
17311;BME280;8773;43.300;0.394;2023-04-27T05:17:59;99630.22;;;16.99;72.19
17311;BME280;8773;43.300;0.394;2023-04-27T05:20:28;99623.38;;;16.97;72.60
17311;BME280;8773;43.300;0.394;2023-04-27T05:22:56;99613.25;;;17.06;72.08
17311;BME280;8773;43.300;0.394;2023-04-27T05:25:25;99614.06;;;17.06;72.18
17311;BME280;8773;43.300;0.394;2023-04-27T05:27:53;99626.78;;;17.12;71.95
17311;BME280;8773;43.300;0.394;2023-04-27T05:30:21;99623.88;;;17.14;71.46
17311;BME280;8773;43.300;0.394;2023-04-27T05:32:49;99626.97;;;17.11;71.58
17311;BME280;8773;43.300;0.394;2023-04-27T05:35:17;99636.50;;;17.07;71.88
17311;BME280;8773;43.300;0.394;2023-04-27T05:37:46;99629.44;;;17.06;71.50
17311;BME280;8773;43.300;0.394;2023-04-27T05:40:14;99636.06;;;17.03;71.84
17311;BME280;8773;43.300;0.394;2023-04-27T05:42:45;99623.25;;;17.12;71.40
17311;BME280;8773;43.300;0.394;2023-04-27T05:45:13;99625.53;;;17.21;71.13
17311;BME280;8773;43.300;0.394;2023-04-27T05:47:41;99622.00;;;17.14;71.40
17311;BME280;8773;43.300;0.394;2023-04-27T05:50:16;99633.19;;;17.18;71.19
17311;BME280;8773;43.300;0.394;2023-04-27T05:52:44;99627.59;;;17.19;71.09
17311;BME280;8773;43.300;0.394;2023-04-27T05:55:12;99633.16;;;17.04;71.59
17311;BME280;8773;43.300;0.394;2023-04-27T05:57:40;99630.09;;;17.21;71.16
17311;BME280;8773;43.300;0.394;2023-04-27T06:00:11;99624.34;;;17.37;70.68
17311;BME280;8773;43.300;0.394;2023-04-27T06:02:40;99622.69;;;17.36;70.55
17311;BME280;8773;43.300;0.394;2023-04-27T06:05:09;99620.06;;;17.56;70.10
17311;BME280;8773;43.300;0.394;2023-04-27T06:07:37;99623.25;;;17.86;69.45
17311;BME280;8773;43.300;0.394;2023-04-27T06:10:08;99630.53;;;18.05;68.53
17311;BME280;8773;43.300;0.394;2023-04-27T06:12:36;99619.31;;;18.08;67.88
17311;BME280;8773;43.300;0.394;2023-04-27T06:15:05;99619.94;;;18.30;67.31
17311;BME280;8773;43.300;0.394;2023-04-27T06:17:37;99604.75;;;18.42;66.56
17311;BME280;8773;43.300;0.394;2023-04-27T06:20:06;99611.38;;;17.74;67.90
17311;BME280;8773;43.300;0.394;2023-04-27T06:22:35;99607.88;;;17.19;70.24
17311;BME280;8773;43.300;0.394;2023-04-27T06:25:04;99611.72;;;17.44;69.70
17311;BME280;8773;43.300;0.394;2023-04-27T06:27:32;99601.88;;;17.91;68.18
17311;BME280;8773;43.300;0.394;2023-04-27T06:30:00;99597.06;;;18.32;67.43
17311;BME280;8773;43.300;0.394;2023-04-27T06:32:28;99609.13;;;18.56;66.41
17311;BME280;8773;43.300;0.394;2023-04-27T06:34:58;99609.31;;;18.75;65.72
17311;BME280;8773;43.300;0.394;2023-04-27T06:37:26;99608.38;;;18.94;65.59
17311;BME280;8773;43.300;0.394;2023-04-27T06:39:54;99608.94;;;19.16;64.87
17311;BME280;8773;43.300;0.394;2023-04-27T06:42:22;99598.47;;;18.81;65.97
17311;BME280;8773;43.300;0.394;2023-04-27T06:44:52;99603.09;;;19.63;64.52
17311;BME280;8773;43.300;0.394;2023-04-27T06:47:20;99597.31;;;19.85;62.73
17311;BME280;8773;43.300;0.394;2023-04-27T06:49:48;99598.00;;;20.73;61.56
17311;BME280;8773;43.300;0.394;2023-04-27T06:52:18;99590.78;;;21.82;58.09
17311;BME280;8773;43.300;0.394;2023-04-27T06:54:46;99591.00;;;22.69;55.13
17311;BME280;8773;43.300;0.394;2023-04-27T06:57:14;99582.59;;;23.50;53.08
17311;BME280;8773;43.300;0.394;2023-04-27T06:59:42;99597.09;;;24.46;50.39
17311;BME280;8773;43.300;0.394;2023-04-27T07:02:11;99583.63;;;25.00;48.70
17311;BME280;8773;43.300;0.394;2023-04-27T07:04:39;99582.69;;;25.60;47.42
17311;BME280;8773;43.300;0.394;2023-04-27T07:07:07;99577.78;;;25.89;46.23
17311;BME280;8773;43.300;0.394;2023-04-27T07:09:36;99565.91;;;26.05;44.80
17311;BME280;8773;43.300;0.394;2023-04-27T07:12:04;99558.94;;;26.62;44.13
17311;BME280;8773;43.300;0.394;2023-04-27T07:14:32;99555.56;;;26.97;42.83
17311;BME280;8773;43.300;0.394;2023-04-27T07:17:00;99567.13;;;27.09;42.72
17311;BME280;8773;43.300;0.394;2023-04-27T07:19:28;99557.91;;;27.45;42.52
17311;BME280;8773;43.300;0.394;2023-04-27T07:21:56;99556.25;;;27.44;40.61
17311;BME280;8773;43.300;0.394;2023-04-27T07:24:24;99560.69;;;27.71;41.06
17311;BME280;8773;43.300;0.394;2023-04-27T07:26:54;99555.78;;;27.78;39.61
17311;BME280;8773;43.300;0.394;2023-04-27T07:29:23;99562.34;;;27.51;39.74
17311;BME280;8773;43.300;0.394;2023-04-27T07:31:54;99551.63;;;28.06;40.16
17311;BME280;8773;43.300;0.394;2023-04-27T07:34:22;99558.25;;;28.20;39.44
17311;BME280;8773;43.300;0.394;2023-04-27T07:36:50;99555.78;;;28.34;40.17
17311;BME280;8773;43.300;0.394;2023-04-27T07:39:20;99561.47;;;28.63;39.19
17311;BME280;8773;43.300;0.394;2023-04-27T07:41:48;99548.75;;;28.92;38.63
17311;BME280;8773;43.300;0.394;2023-04-27T07:44:18;99560.72;;;28.42;37.63
17311;BME280;8773;43.300;0.394;2023-04-27T07:46:47;99554.13;;;26.89;41.02
17311;BME280;8773;43.300;0.394;2023-04-27T07:49:15;99546.63;;;26.27;42.82
17311;BME280;8773;43.300;0.394;2023-04-27T07:51:43;99535.91;;;26.57;42.87
17311;BME280;8773;43.300;0.394;2023-04-27T07:54:11;99524.63;;;26.49;43.04
17311;BME280;8773;43.300;0.394;2023-04-27T07:56:40;99516.44;;;26.54;42.95
17311;BME280;8773;43.300;0.394;2023-04-27T07:59:09;99522.16;;;25.73;44.92
17311;BME280;8773;43.300;0.394;2023-04-27T08:01:39;99514.66;;;26.33;45.06
17311;BME280;8773;43.300;0.394;2023-04-27T08:04:07;99518.59;;;26.10;43.42
17311;BME280;8773;43.300;0.394;2023-04-27T08:06:35;99521.31;;;25.19;46.09
17311;BME280;8773;43.300;0.394;2023-04-27T08:09:04;99526.78;;;24.37;48.60
17311;BME280;8773;43.300;0.394;2023-04-27T08:11:33;99519.69;;;24.36;48.25
17311;BME280;8773;43.300;0.394;2023-04-27T08:14:01;99520.38;;;23.92;50.45
17311;BME280;8773;43.300;0.394;2023-04-27T08:16:29;99520.72;;;22.54;53.06
17311;BME280;8773;43.300;0.394;2023-04-27T08:18:59;99524.97;;;21.91;55.04
17311;BME280;8773;43.300;0.394;2023-04-27T08:21:27;99513.84;;;22.63;54.79
17311;BME280;8773;43.300;0.394;2023-04-27T08:23:56;99512.28;;;23.19;54.29
17311;BME280;8773;43.300;0.394;2023-04-27T08:26:23;99519.41;;;22.68;53.93
17311;BME280;8773;43.300;0.394;2023-04-27T08:28:52;99505.59;;;22.86;53.21
17311;BME280;8773;43.300;0.394;2023-04-27T08:31:22;99505.53;;;23.38;53.41
17311;BME280;8773;43.300;0.394;2023-04-27T08:33:50;99507.31;;;23.04;52.84
17311;BME280;8773;43.300;0.394;2023-04-27T08:36:20;99498.59;;;22.39;54.77
17311;BME280;8773;43.300;0.394;2023-04-27T08:38:50;99496.22;;;22.66;54.73
17311;BME280;8773;43.300;0.394;2023-04-27T08:41:18;99488.78;;;22.89;53.71
17311;BME280;8773;43.300;0.394;2023-04-27T08:43:48;99496.31;;;23.73;52.80
17311;BME280;8773;43.300;0.394;2023-04-27T08:46:17;99494.34;;;23.85;51.29
17311;BME280;8773;43.300;0.394;2023-04-27T08:48:46;99490.59;;;24.24;50.51
17311;BME280;8773;43.300;0.394;2023-04-27T08:51:16;99486.44;;;24.39;48.66
17311;BME280;8773;43.300;0.394;2023-04-27T08:53:48;99479.97;;;23.89;51.71
17311;BME280;8773;43.300;0.394;2023-04-27T08:56:17;99495.72;;;24.21;52.53
17311;BME280;8773;43.300;0.394;2023-04-27T08:58:45;99490.22;;;23.99;50.82
17311;BME280;8773;43.300;0.394;2023-04-27T09:01:13;99488.09;;;24.23;49.07
17311;BME280;8773;43.300;0.394;2023-04-27T09:03:42;99485.78;;;24.32;49.80
17311;BME280;8773;43.300;0.394;2023-04-27T09:06:13;99478.66;;;24.47;49.87
17311;BME280;8773;43.300;0.394;2023-04-27T09:08:47;99470.47;;;24.96;48.38
17311;BME280;8773;43.300;0.394;2023-04-27T09:11:26;99480.94;;;24.77;47.73
17311;BME280;8773;43.300;0.394;2023-04-27T09:13:54;99486.34;;;23.95;49.29
17311;BME280;8773;43.300;0.394;2023-04-27T09:16:23;99481.25;;;24.20;49.58
17311;BME280;8773;43.300;0.394;2023-04-27T09:18:51;99475.91;;;24.69;49.51
17311;BME280;8773;43.300;0.394;2023-04-27T09:21:23;99484.50;;;25.05;48.02
17311;BME280;8773;43.300;0.394;2023-04-27T09:23:54;99483.13;;;25.02;46.80
17311;BME280;8773;43.300;0.394;2023-04-27T09:26:23;99489.69;;;24.19;48.58
17311;BME280;8773;43.300;0.394;2023-04-27T09:28:53;99487.72;;;24.53;48.33
17311;BME280;8773;43.300;0.394;2023-04-27T09:31:30;99494.38;;;24.23;48.55
17311;BME280;8773;43.300;0.394;2023-04-27T09:33:58;99497.06;;;24.57;47.26
17311;BME280;8773;43.300;0.394;2023-04-27T09:36:27;99495.03;;;24.47;48.41
17311;BME280;8773;43.300;0.394;2023-04-27T09:39:02;99501.84;;;24.11;48.71
17311;BME280;8773;43.300;0.394;2023-04-27T09:41:31;99501.25;;;24.43;49.22
17311;BME280;8773;43.300;0.394;2023-04-27T09:43:59;99507.22;;;24.61;48.33
17311;BME280;8773;43.300;0.394;2023-04-27T09:46:28;99509.19;;;24.66;48.43
17311;BME280;8773;43.300;0.394;2023-04-27T09:49:00;99511.06;;;24.05;49.44
17311;BME280;8773;43.300;0.394;2023-04-27T09:52:34;99521.19;;;23.59;50.33
17311;BME280;8773;43.300;0.394;2023-04-27T09:55:02;99513.53;;;24.07;49.81
17311;BME280;8773;43.300;0.394;2023-04-27T09:57:36;99520.47;;;24.53;48.20
17311;BME280;8773;43.300;0.394;2023-04-27T10:02:06;99522.50;;;24.41;47.08
17311;BME280;8773;43.300;0.394;2023-04-27T10:05:07;99520.19;;;24.16;48.23
17311;BME280;8773;43.300;0.394;2023-04-27T10:07:40;99510.19;;;24.21;48.35
17311;BME280;8773;43.300;0.394;2023-04-27T10:10:15;99510.38;;;24.53;48.92
17311;BME280;8773;43.300;0.394;2023-04-27T10:12:55;99514.59;;;24.83;48.81
17311;BME280;8773;43.300;0.394;2023-04-27T10:15:27;99515.47;;;24.45;47.41
17311;BME280;8773;43.300;0.394;2023-04-27T10:18:03;99513.56;;;24.89;46.85
17311;BME280;8773;43.300;0.394;2023-04-27T10:21:10;99503.47;;;24.89;47.08
17311;BME280;8773;43.300;0.394;2023-04-27T10:25:26;99492.34;;;25.18;45.63
17311;BME280;8773;43.300;0.394;2023-04-27T10:28:57;99495.19;;;25.60;46.39
17311;BME280;8773;43.300;0.394;2023-04-27T10:31:28;99498.25;;;25.64;44.61
17311;BME280;8773;43.300;0.394;2023-04-27T10:34:06;99490.13;;;25.15;46.15
17311;BME280;8773;43.300;0.394;2023-04-27T10:36:34;99498.75;;;25.29;47.15
17311;BME280;8773;43.300;0.394;2023-04-27T10:39:12;99490.22;;;25.84;44.47
17311;BME280;8773;43.300;0.394;2023-04-27T10:41:48;99498.81;;;25.66;44.69
17311;BME280;8773;43.300;0.394;2023-04-27T10:46:11;99487.94;;;26.08;44.36
17311;BME280;8773;43.300;0.394;2023-04-27T10:48:39;99490.41;;;26.09;42.47
17311;BME280;8773;43.300;0.394;2023-04-27T10:51:07;99485.19;;;26.08;42.60
17311;BME280;8773;43.300;0.394;2023-04-27T10:53:35;99475.56;;;26.00;42.57
17311;BME280;8773;43.300;0.394;2023-04-27T10:56:03;99484.38;;;26.07;42.77
17311;BME280;8773;43.300;0.394;2023-04-27T10:58:31;99481.59;;;26.44;42.75
17311;BME280;8773;43.300;0.394;2023-04-27T11:01:23;99471.41;;;26.35;41.99
17311;BME280;8773;43.300;0.394;2023-04-27T11:03:54;99463.16;;;26.24;42.11
17311;BME280;8773;43.300;0.394;2023-04-27T11:06:21;99465.00;;;26.66;42.21
17311;BME280;8773;43.300;0.394;2023-04-27T11:08:49;99462.88;;;26.88;41.99
17311;BME280;8773;43.300;0.394;2023-04-27T11:11:16;99467.91;;;27.17;40.28
17311;BME280;8773;43.300;0.394;2023-04-27T11:13:44;99459.41;;;27.18;41.79
17311;BME280;8773;43.300;0.394;2023-04-27T11:16:14;99457.22;;;27.10;42.25
17311;BME280;8773;43.300;0.394;2023-04-27T11:18:43;99452.00;;;27.24;41.80
17311;BME280;8773;43.300;0.394;2023-04-27T11:21:12;99449.28;;;27.29;41.75
17311;BME280;8773;43.300;0.394;2023-04-27T11:23:40;99439.38;;;27.13;41.01
17311;BME280;8773;43.300;0.394;2023-04-27T11:26:09;99445.16;;;27.06;39.95
17311;BME280;8773;43.300;0.394;2023-04-27T11:28:37;99435.44;;;26.78;40.40
17311;BME280;8773;43.300;0.394;2023-04-27T11:31:05;99436.66;;;27.03;39.82
17311;BME280;8773;43.300;0.394;2023-04-27T11:33:32;99433.22;;;26.60;40.50
17311;BME280;8773;43.300;0.394;2023-04-27T11:36:14;99440.75;;;25.90;42.60
17311;BME280;8773;43.300;0.394;2023-04-27T11:38:41;99433.72;;;26.52;42.41
17311;BME280;8773;43.300;0.394;2023-04-27T11:41:09;99422.31;;;26.85;41.74
17311;BME280;8773;43.300;0.394;2023-04-27T11:43:40;99421.72;;;26.63;41.55
17311;BME280;8773;43.300;0.394;2023-04-27T11:46:08;99437.09;;;26.69;40.09
17311;BME280;8773;43.300;0.394;2023-04-27T11:48:36;99419.78;;;26.53;40.12
17311;BME280;8773;43.300;0.394;2023-04-27T11:51:06;99430.88;;;26.99;40.63
17311;BME280;8773;43.300;0.394;2023-04-27T11:53:34;99424.06;;;27.27;40.33
17311;BME280;8773;43.300;0.394;2023-04-27T11:56:03;99424.59;;;27.14;39.36
17311;BME280;8773;43.300;0.394;2023-04-27T11:58:32;99424.56;;;26.94;39.44
17311;BME280;8773;43.300;0.394;2023-04-27T12:01:00;99422.94;;;27.13;38.94
17311;BME280;8773;43.300;0.394;2023-04-27T12:03:27;99422.97;;;27.33;40.34
17311;BME280;8773;43.300;0.394;2023-04-27T12:05:55;99424.34;;;27.61;38.14
17311;BME280;8773;43.300;0.394;2023-04-27T12:08:35;99424.34;;;27.46;38.21
17311;BME280;8773;43.300;0.394;2023-04-27T12:11:02;99432.31;;;27.78;37.86
17311;BME280;8773;43.300;0.394;2023-04-27T12:13:29;99436.66;;;27.99;38.65
17311;BME280;8773;43.300;0.394;2023-04-27T12:15:56;99438.63;;;27.58;38.04
17311;BME280;8773;43.300;0.394;2023-04-27T12:18:26;99434.22;;;27.57;37.83
17311;BME280;8773;43.300;0.394;2023-04-27T12:20:54;99430.63;;;27.31;38.04
17311;BME280;8773;43.300;0.394;2023-04-27T12:23:21;99429.81;;;27.92;36.76
17311;BME280;8773;43.300;0.394;2023-04-27T12:25:50;99427.00;;;28.27;37.11
17311;BME280;8773;43.300;0.394;2023-04-27T12:28:17;99434.59;;;28.45;35.93
17311;BME280;8773;43.300;0.394;2023-04-27T12:30:45;99426.00;;;28.72;35.37
17311;BME280;8773;43.300;0.394;2023-04-27T12:33:12;99427.09;;;28.76;35.50
17311;BME280;8773;43.300;0.394;2023-04-27T12:35:42;99435.34;;;28.66;36.69
17311;BME280;8773;43.300;0.394;2023-04-27T12:38:10;99425.88;;;28.93;37.55
17311;BME280;8773;43.300;0.394;2023-04-27T12:40:37;99434.75;;;28.84;36.84
17311;BME280;8773;43.300;0.394;2023-04-27T12:43:07;99434.16;;;28.87;35.26
17311;BME280;8773;43.300;0.394;2023-04-27T12:45:34;99440.72;;;28.92;36.75
17311;BME280;8773;43.300;0.394;2023-04-27T12:48:01;99433.19;;;28.58;36.76
17311;BME280;8773;43.300;0.394;2023-04-27T12:50:31;99442.63;;;28.42;35.98
17311;BME280;8773;43.300;0.394;2023-04-27T12:52:58;99444.31;;;28.28;36.81
17311;BME280;8773;43.300;0.394;2023-04-27T12:55:26;99452.56;;;28.02;37.15
17311;BME280;8773;43.300;0.394;2023-04-27T12:57:56;99455.34;;;27.77;36.28
17311;BME280;8773;43.300;0.394;2023-04-27T13:00:27;99465.50;;;27.76;37.05
17311;BME280;8773;43.300;0.394;2023-04-27T13:02:55;99458.09;;;27.72;37.20
17311;BME280;8773;43.300;0.394;2023-04-27T13:05:23;99459.97;;;28.02;35.72
17311;BME280;8773;43.300;0.394;2023-04-27T13:07:50;99446.28;;;27.92;35.95
17311;BME280;8773;43.300;0.394;2023-04-27T13:10:18;99450.41;;;27.64;36.63
17311;BME280;8773;43.300;0.394;2023-04-27T13:12:45;99454.25;;;27.83;36.32
17311;BME280;8773;43.300;0.394;2023-04-27T13:15:12;99453.66;;;28.06;36.42
17311;BME280;8773;43.300;0.394;2023-04-27T13:17:41;99454.44;;;28.42;35.17
17311;BME280;8773;43.300;0.394;2023-04-27T13:20:10;99454.78;;;27.90;36.06
17311;BME280;8773;43.300;0.394;2023-04-27T13:22:38;99454.81;;;27.70;36.19
17311;BME280;8773;43.300;0.394;2023-04-27T13:25:06;99453.69;;;27.86;35.80
17311;BME280;8773;43.300;0.394;2023-04-27T13:27:33;99452.59;;;27.97;36.01